Time;durP1;ratioP1;P1;durP2;ratioP2;P2;SDS_P1;SDS_P2;PMS_P1;PMS_P2;Temp;Humidity;BMP_temperature;BMP_pressure;BME280_temperature;BME280_humidity;BME280_pressure;Samples;Min_cycle;Max_cycle;Signal;HPM_P1;HPM_P2
2023/02/26 00:00:42;;;;;;;24.05;8.55;;;;;;;13.16;52.84;93580.38;5107204;28;20103;-81
2023/02/26 00:03:10;;;;;;;20.25;7.55;;;;;;;13.18;52.31;93583.56;5118842;28;20043;-82
2023/02/26 00:05:37;;;;;;;16.15;7.15;;;;;;;13.06;52.23;93564.50;5076901;28;20090;-81
2023/02/26 00:08:34;;;;;;;15.07;7.50;;;;;;;13.39;52.59;93607.50;5108446;28;20015;-83
2023/02/26 00:11:00;;;;;;;17.52;8.40;;;;;;;13.03;52.65;93577.94;5122308;28;20118;-80
2023/02/26 00:13:27;;;;;;;16.88;7.18;;;;;;;13.28;51.58;93577.03;5088884;28;20056;-79
2023/02/26 00:15:58;;;;;;;14.75;7.32;;;;;;;13.36;51.63;93602.72;5098555;28;20024;-79
2023/02/26 00:18:24;;;;;;;10.65;5.50;;;;;;;13.63;49.15;93604.75;5108458;28;20031;-80
2023/02/26 00:20:52;;;;;;;13.25;4.35;;;;;;;14.50;45.15;93579.72;5082487;28;20510;-81
2023/02/26 00:23:18;;;;;;;21.48;5.45;;;;;;;14.41;45.36;93591.50;5080960;28;20110;-80
2023/02/26 00:25:46;;;;;;;13.48;4.55;;;;;;;14.44;44.78;93588.44;5110724;28;20039;-80
2023/02/26 00:28:12;;;;;;;18.13;4.07;;;;;;;14.57;44.36;93579.59;5102682;28;20012;-80
2023/02/26 00:30:38;;;;;;;21.10;4.63;;;;;;;14.61;43.98;93572.88;5114606;28;20058;-79
2023/02/26 00:33:06;;;;;;;11.63;3.85;;;;;;;14.72;43.47;93587.72;5128650;28;20693;-78
2023/02/26 00:35:33;;;;;;;17.33;4.07;;;;;;;14.83;43.33;93586.91;5088357;28;20118;-78
2023/02/26 00:38:10;;;;;;;17.85;4.32;;;;;;;14.61;44.30;93580.69;5105704;28;20016;-80
2023/02/26 00:40:42;;;;;;;13.57;4.10;;;;;;;14.64;43.96;93585.47;5112103;28;20032;-79
2023/02/26 00:43:25;;;;;;;13.50;4.85;;;;;;;14.51;44.42;93576.06;5094606;28;20036;-80
2023/02/26 00:46:41;;;;;;;12.57;3.92;;;;;;;14.25;44.65;93538.22;5197699;23;20128;-80
2023/02/26 00:49:13;;;;;;;12.30;3.67;;;;;;;14.51;44.20;93575.28;5057449;28;20044;-80
2023/02/26 00:51:48;;;;;;;16.58;4.43;;;;;;;14.30;44.42;93560.19;5074087;28;20023;-80
2023/02/26 00:56:50;;;;;;;17.20;5.25;;;;;;;13.99;46.36;93541.31;5625089;23;20050;-80
2023/02/26 00:59:16;;;;;;;23.50;10.10;;;;;;;12.42;54.50;93512.34;5234559;23;20056;-82
2023/02/26 01:01:43;;;;;;;21.40;9.48;;;;;;;12.50;55.89;93544.00;5083860;28;20044;-81
2023/02/26 01:04:09;;;;;;;22.80;9.18;;;;;;;12.22;55.90;93506.56;5074749;28;20024;-81
2023/02/26 01:06:39;;;;;;;22.70;8.50;;;;;;;12.46;55.81;93545.44;5084331;28;20024;-81
2023/02/26 01:09:04;;;;;;;21.30;8.65;;;;;;;12.44;56.71;93564.84;5091844;28;20024;-82
2023/02/26 01:11:32;;;;;;;28.33;9.63;;;;;;;11.91;57.33;93495.31;5100782;28;20039;-80
2023/02/26 01:13:57;;;;;;;21.70;9.48;;;;;;;12.10;58.24;93541.00;5061090;28;20099;-79
2023/02/26 01:16:26;;;;;;;23.48;9.70;;;;;;;12.14;58.94;93562.94;5091398;28;20066;-80
2023/02/26 01:19:33;;;;;;;23.57;10.00;;;;;;;12.10;59.73;93558.41;5056508;28;20145;-80
2023/02/26 01:22:16;;;;;;;22.00;9.60;;;;;;;11.93;61.35;93555.56;5053721;28;20055;-79
2023/02/26 01:24:42;;;;;;;22.40;9.63;;;;;;;12.04;59.71;93554.84;5067050;28;20248;-79
2023/02/26 01:27:07;;;;;;;18.58;8.70;;;;;;;12.01;59.98;93547.50;5086236;28;20023;-79
2023/02/26 01:29:33;;;;;;;22.40;9.27;;;;;;;12.01;60.33;93563.06;5083886;28;20055;-79
2023/02/26 01:32:15;;;;;;;21.75;8.55;;;;;;;11.84;60.73;93556.06;5098805;28;20107;-80
2023/02/26 01:34:52;;;;;;;18.92;8.68;;;;;;;11.66;60.91;93533.41;5079739;28;20805;-80
2023/02/26 01:37:22;;;;;;;14.63;8.05;;;;;;;11.73;60.75;93560.13;5076370;28;20020;-80
2023/02/26 01:40:25;;;;;;;18.08;7.85;;;;;;;11.91;58.87;93521.25;5052432;28;20135;-80
2023/02/26 01:42:53;;;;;;;18.30;7.93;;;;;;;12.10;58.29;93542.84;5061503;28;20519;-80
2023/02/26 01:45:31;;;;;;;22.17;8.32;;;;;;;12.11;57.59;93541.81;5057414;28;20062;-80
2023/02/26 01:48:04;;;;;;;20.85;7.68;;;;;;;11.95;57.84;93529.38;5066558;28;20055;-80
2023/02/26 01:50:31;;;;;;;16.25;7.57;;;;;;;11.99;57.00;93528.75;5075835;28;20031;-80
2023/02/26 01:53:15;;;;;;;23.33;7.32;;;;;;;11.87;57.70;93527.88;5063612;28;20544;-80
2023/02/26 01:55:42;;;;;;;14.35;7.22;;;;;;;11.67;58.10;93524.63;5084547;28;20086;-82
2023/02/26 01:58:07;;;;;;;20.52;6.97;;;;;;;12.02;56.33;93514.56;5110131;28;20436;-82
2023/02/26 02:00:33;;;;;;;22.77;7.82;;;;;;;11.76;56.94;93505.22;5078757;28;20016;-81
2023/02/26 02:02:58;;;;;;;22.60;6.85;;;;;;;11.56;57.25;93497.59;5090097;28;20043;-81
2023/02/26 02:05:30;;;;;;;17.08;6.85;;;;;;;11.82;56.58;93490.59;5068802;28;20106;-81
2023/02/26 02:07:56;;;;;;;13.52;6.95;;;;;;;11.42;58.58;93500.50;5059222;28;20031;-81
2023/02/26 02:10:22;;;;;;;21.60;7.40;;;;;;;11.23;59.22;93501.47;5051194;28;20524;-80
2023/02/26 02:13:26;;;;;;;11.40;5.15;;;;;;;12.05;52.59;93507.16;5058972;28;20028;-78
2023/02/26 02:16:21;;;;;;;21.17;4.35;;;;;;;12.60;49.25;93513.13;5047509;28;20040;-80
2023/02/26 02:19:23;;;;;;;10.50;3.60;;;;;;;12.97;47.21;93506.03;5061622;28;20024;-80
2023/02/26 02:22:07;;;;;;;15.52;3.75;;;;;;;13.24;45.98;93490.09;5051729;28;20425;-80
2023/02/26 02:25:20;;;;;;;13.27;3.45;;;;;;;13.35;44.74;93478.94;5077612;28;20032;-81
2023/02/26 02:27:56;;;;;;;10.18;3.40;;;;;;;13.51;43.62;93462.66;5048155;28;20248;-80
2023/02/26 02:30:37;;;;;;;9.88;2.92;;;;;;;13.91;42.61;93473.97;5069248;28;20079;-81
2023/02/26 02:33:27;;;;;;;11.13;3.70;;;;;;;13.80;43.01;93476.59;5063242;28;20027;-80
2023/02/26 02:36:08;;;;;;;18.63;3.30;;;;;;;13.71;42.89;93476.91;5061936;28;20111;-81
2023/02/26 02:38:38;;;;;;;13.15;3.35;;;;;;;13.88;42.47;93479.63;5071009;28;20013;-79
2023/02/26 02:41:14;;;;;;;12.57;3.88;;;;;;;13.76;42.43;93460.63;5062033;28;20139;-80
2023/02/26 02:43:40;;;;;;;16.20;3.60;;;;;;;14.18;41.39;93482.91;5056879;28;20066;-79
2023/02/26 02:46:25;;;;;;;15.02;3.38;;;;;;;14.00;42.05;93495.25;5057104;28;20032;-81
2023/02/26 02:49:14;;;;;;;11.57;3.17;;;;;;;13.66;43.04;93478.63;5068712;28;20028;-81
2023/02/26 02:52:03;;;;;;;13.60;3.42;;;;;;;13.91;42.11;93489.59;5075409;28;20024;-79
2023/02/26 02:54:34;;;;;;;14.17;3.30;;;;;;;14.48;40.76;93497.59;5084101;28;20039;-80
2023/02/26 02:57:43;;;;;;;15.95;4.13;;;;;;;14.54;40.42;93501.88;5084010;28;20271;-80
2023/02/26 03:00:23;;;;;;;11.38;2.60;;;;;;;14.07;41.42;93485.50;5104622;28;20048;-81
2023/02/26 03:03:07;;;;;;;15.40;3.88;;;;;;;14.33;40.82;93505.88;5100367;28;20035;-80
2023/02/26 03:05:33;;;;;;;17.90;4.30;;;;;;;14.12;41.15;93499.44;5107514;28;20034;-80
2023/02/26 03:08:04;;;;;;;16.05;3.17;;;;;;;14.14;41.26;93502.59;5117365;28;20211;-81
2023/02/26 03:10:30;;;;;;;19.45;4.80;;;;;;;13.33;45.10;93509.53;5101789;28;20032;-82
2023/02/26 03:12:56;;;;;;;14.73;5.80;;;;;;;11.99;51.79;93508.00;5102248;28;20050;-83
2023/02/26 03:18:07;;;;;;;17.17;5.70;;;;;;;11.84;52.88;93511.97;5729703;23;20054;-80
2023/02/26 03:21:39;;;;;;;17.35;6.82;;;;;;;10.84;58.14;93513.66;5101113;28;20040;-82
2023/02/26 03:24:37;;;;;;;17.90;6.45;;;;;;;10.53;59.00;93474.81;5094487;28;20036;-81
2023/02/26 03:27:10;;;;;;;18.02;5.57;;;;;;;10.63;60.26;93521.72;5097868;28;20039;-82
2023/02/26 03:29:56;;;;;;;10.20;5.60;;;;;;;10.34;61.94;93514.50;5115363;28;20641;-81
2023/02/26 03:32:30;;;;;;;17.02;6.13;;;;;;;9.95;62.61;93466.25;5101373;28;20017;-81
2023/02/26 03:35:08;;;;;;;19.38;6.97;;;;;;;9.78;63.24;93460.72;5073584;28;20036;-82
2023/02/26 03:37:44;;;;;;;14.50;6.05;;;;;;;9.74;63.91;93477.63;5078692;28;20028;-80
2023/02/26 03:40:37;;;;;;;19.33;5.95;;;;;;;9.68;64.07;93475.03;5369478;23;20012;-82
2023/02/26 03:43:32;;;;;;;23.40;6.50;;;;;;;10.08;62.02;93516.13;5101951;28;20039;-81
2023/02/26 03:46:04;;;;;;;23.90;6.47;;;;;;;10.18;59.84;93476.16;5130638;27;20035;-81
2023/02/26 03:48:30;;;;;;;14.80;6.05;;;;;;;10.05;59.67;93453.66;5122121;27;20051;-82
2023/02/26 03:51:03;;;;;;;16.88;5.35;;;;;;;10.06;59.07;93437.16;5098213;28;20509;-82
2023/02/26 03:53:40;;;;;;;15.88;5.57;;;;;;;9.94;60.01;93447.34;5080526;28;20142;-82
2023/02/26 03:56:15;;;;;;;14.95;5.72;;;;;;;9.82;60.19;93451.56;5101920;28;20012;-82
2023/02/26 03:58:42;;;;;;;17.90;6.35;;;;;;;9.69;60.80;93440.47;5129012;27;20027;-82
2023/02/26 04:01:14;;;;;;;19.42;5.70;;;;;;;10.09;59.10;93439.31;5134306;28;20023;-82
2023/02/26 04:03:55;;;;;;;13.27;6.28;;;;;;;10.32;58.85;93452.59;5114081;28;20035;-81
2023/02/26 04:06:23;;;;;;;20.08;6.20;;;;;;;10.10;59.48;93435.75;5093692;28;20032;-82
2023/02/26 04:09:10;;;;;;;13.77;6.00;;;;;;;10.41;60.11;93495.34;5104714;28;20066;-83
2023/02/26 04:11:41;;;;;;;18.77;6.20;;;;;;;10.15;60.01;93441.13;5117067;28;20032;-82
2023/02/26 04:14:28;;;;;;;18.13;6.50;;;;;;;10.07;60.03;93428.41;5135044;28;20028;-83
2023/02/26 04:16:54;;;;;;;19.52;5.85;;;;;;;10.03;60.89;93437.56;5128190;28;20066;-81
2023/02/26 04:19:20;;;;;;;14.23;5.80;;;;;;;10.01;62.39;93462.84;5101274;28;20038;-81
2023/02/26 04:21:45;;;;;;;10.88;5.55;;;;;;;9.99;63.60;93488.09;5125306;28;20039;-81
2023/02/26 04:24:11;;;;;;;16.05;6.95;;;;;;;9.91;63.21;93458.09;5098972;28;20023;-81
2023/02/26 04:26:36;;;;;;;15.70;5.97;;;;;;;9.96;62.72;93476.38;5096791;28;20028;-81
2023/02/26 04:29:02;;;;;;;17.55;6.07;;;;;;;9.92;64.17;93487.34;5093718;28;20027;-81
2023/02/26 04:31:29;;;;;;;23.48;6.80;;;;;;;9.91;64.60;93494.31;5132363;28;20031;-83
2023/02/26 04:33:55;;;;;;;21.80;6.75;;;;;;;9.72;64.54;93471.88;5145884;28;20091;-82
2023/02/26 04:36:21;;;;;;;13.77;5.45;;;;;;;9.31;66.12;93448.06;5087673;28;20043;-81
2023/02/26 04:38:48;;;;;;;19.88;6.40;;;;;;;9.55;65.74;93460.34;5125937;28;20000;-82
2023/02/26 04:41:14;;;;;;;13.25;5.72;;;;;;;9.68;64.81;93444.03;5119955;28;20039;-82
2023/02/26 04:43:39;;;;;;;17.60;5.13;;;;;;;9.66;65.68;93443.44;5124487;28;20027;-81
2023/02/26 04:46:05;;;;;;;17.83;6.38;;;;;;;9.57;66.00;93486.78;5147537;28;20075;-82
2023/02/26 04:48:30;;;;;;;24.98;10.15;;;;;;;9.32;67.47;93455.63;5117149;28;20510;-81
2023/02/26 04:50:56;;;;;;;20.08;10.10;;;;;;;9.37;67.85;93457.59;5112119;28;20023;-82
2023/02/26 04:53:21;;;;;;;18.42;10.93;;;;;;;9.37;69.06;93467.94;5123690;28;20031;-83
2023/02/26 04:55:48;;;;;;;22.00;10.13;;;;;;;9.24;69.72;93455.03;5115816;28;20095;-82
2023/02/26 04:58:14;;;;;;;18.55;7.65;;;;;;;9.30;69.08;93473.13;5128961;28;20023;-81
2023/02/26 05:00:39;;;;;;;17.98;7.32;;;;;;;9.27;70.43;93475.28;5144554;27;20023;-82
2023/02/26 05:03:05;;;;;;;19.08;7.47;;;;;;;9.06;70.90;93447.06;5142409;27;20027;-81
2023/02/26 05:05:31;;;;;;;17.63;7.22;;;;;;;8.96;72.39;93462.97;5111436;27;20039;-80
2023/02/26 05:07:57;;;;;;;11.95;7.40;;;;;;;9.02;71.82;93456.22;5134010;27;20075;-81
2023/02/26 05:10:23;;;;;;;55.83;37.22;;;;;;;8.89;72.89;93462.94;5123243;27;20035;-80
2023/02/26 05:12:48;;;;;;;19.83;8.60;;;;;;;9.17;70.95;93470.53;5129807;27;20049;-81
2023/02/26 05:15:15;;;;;;;19.67;6.03;;;;;;;9.04;71.29;93446.50;5133152;27;20047;-81
2023/02/26 05:17:40;;;;;;;21.50;8.60;;;;;;;9.93;66.32;93473.41;5125439;27;20031;-81
2023/02/26 05:20:08;;;;;;;44.35;17.92;;;;;;;9.74;66.96;93476.81;5128261;27;20015;-79
2023/02/26 05:22:35;;;;;;;24.33;11.13;;;;;;;9.64;67.41;93466.91;5118393;27;20047;-80
2023/02/26 05:25:01;;;;;;;24.52;9.77;;;;;;;9.92;65.58;93464.84;5124077;27;20123;-80
2023/02/26 05:27:26;;;;;;;21.70;8.88;;;;;;;9.18;69.40;93459.22;5121740;27;20078;-80
2023/02/26 05:29:52;;;;;;;30.38;7.80;;;;;;;9.04;70.97;93469.72;5133072;27;20403;-79
2023/02/26 05:32:17;;;;;;;17.35;7.25;;;;;;;9.10;71.49;93474.91;5133395;27;20848;-80
2023/02/26 05:34:42;;;;;;;20.88;7.00;;;;;;;9.22;71.21;93485.41;5119088;27;20035;-80
2023/02/26 05:37:08;;;;;;;16.30;5.75;;;;;;;9.52;69.76;93481.44;5117988;27;20052;-80
2023/02/26 05:39:33;;;;;;;21.30;7.10;;;;;;;9.60;69.17;93480.44;5131604;27;20100;-80
2023/02/26 05:41:59;;;;;;;14.20;5.65;;;;;;;9.75;68.68;93481.00;5111864;27;20039;-81
2023/02/26 05:44:24;;;;;;;14.85;6.60;;;;;;;9.84;67.96;93488.34;5112092;28;20030;-80
2023/02/26 05:46:49;;;;;;;14.73;6.47;;;;;;;10.71;63.08;93480.06;5126474;27;20035;-80
2023/02/26 05:49:15;;;;;;;20.48;7.03;;;;;;;11.48;59.08;93473.75;5128515;27;20054;-80
2023/02/26 05:51:41;;;;;;;28.90;7.38;;;;;;;12.11;56.77;93479.53;5118771;27;20286;-80
2023/02/26 05:54:07;;;;;;;19.23;6.43;;;;;;;13.65;53.04;93482.22;5130921;27;20011;-80
2023/02/26 05:56:33;;;;;;;21.65;7.18;;;;;;;13.94;51.50;93499.53;5122186;27;20031;-82
2023/02/26 05:58:58;;;;;;;23.50;7.53;;;;;;;12.55;55.60;93491.41;5105430;27;20027;-80
2023/02/26 06:01:23;;;;;;;22.77;7.32;;;;;;;12.74;58.08;93489.56;5135107;27;20030;-79
2023/02/26 06:03:49;;;;;;;17.58;7.75;;;;;;;12.50;58.96;93492.06;5137740;27;20495;-82
2023/02/26 06:06:16;;;;;;;20.42;8.73;;;;;;;12.72;58.14;93482.00;5137910;27;20842;-79
2023/02/26 06:08:43;;;;;;;24.70;9.52;;;;;;;12.29;59.30;93489.94;5122057;27;20019;-81
2023/02/26 06:26:40;;;;;;;17.08;5.72;;;;;;;12.59;52.30;93414.63;5106984;22;20056;-82
2023/02/26 06:29:25;;;;;;;22.15;5.47;;;;;;;13.38;50.30;93468.09;5101685;28;20024;-82
2023/02/26 06:31:50;;;;;;;25.05;5.63;;;;;;;13.32;48.66;93422.19;5059281;28;20086;-81
2023/02/26 06:34:16;;;;;;;23.35;10.38;;;;;;;13.94;47.63;93424.06;5067449;28;20025;-82
2023/02/26 06:36:51;;;;;;;17.40;5.72;;;;;;;14.95;45.31;93446.09;5066820;28;20036;-81
2023/02/26 06:39:18;;;;;;;20.60;4.70;;;;;;;14.94;44.51;93453.09;5074028;28;20033;-80
2023/02/26 06:41:52;;;;;;;21.13;4.85;;;;;;;15.66;42.64;93432.38;5067037;28;20037;-79
2023/02/26 06:44:38;;;;;;;15.02;4.85;;;;;;;17.05;39.85;93453.69;5038582;28;20059;-82
2023/02/26 06:47:03;;;;;;;15.00;4.57;;;;;;;17.27;38.50;93460.44;5051835;28;20537;-87
2023/02/26 06:54:41;;;;;;;24.77;4.78;;;;;;;16.48;38.07;93414.88;5204570;23;20061;-83
2023/02/26 06:57:08;;;;;;;23.40;4.80;;;;;;;16.58;38.56;93419.47;5077901;28;20068;-86
2023/02/26 06:59:34;;;;;;;21.27;4.38;;;;;;;16.75;38.22;93407.09;5051821;28;20084;-81
2023/02/26 07:04:34;;;;;;;15.75;5.10;;;;;;;17.17;37.41;93402.78;5291898;23;20070;-80
2023/02/26 07:07:03;;;;;;;24.38;4.50;;;;;;;17.98;36.38;93415.69;5072992;28;20056;-84
2023/02/26 07:09:28;;;;;;;16.13;4.20;;;;;;;18.50;36.61;93462.88;5040031;28;20025;-83
2023/02/26 07:11:54;;;;;;;23.92;5.03;;;;;;;17.86;36.92;93453.34;5040815;28;20035;-88
2023/02/26 07:14:19;;;;;;;19.33;4.00;;;;;;;18.99;36.00;93448.34;5058657;28;20398;-88
2023/02/26 07:16:45;;;;;;;16.77;4.70;;;;;;;18.77;36.12;93453.81;5021228;28;20452;-90
2023/02/26 07:19:10;;;;;;;22.42;4.80;;;;;;;18.34;37.23;93454.91;5020710;28;20520;-89
2023/02/26 07:21:35;;;;;;;35.53;5.22;;;;;;;17.97;37.96;93450.78;5081535;28;20040;-89
2023/02/26 07:24:01;;;;;;;13.68;4.38;;;;;;;18.13;37.46;93442.75;5042293;28;20398;-89
2023/02/26 07:26:26;;;;;;;16.17;4.07;;;;;;;18.51;37.01;93454.75;5058289;28;20070;-90
2023/02/26 07:28:52;;;;;;;15.10;3.90;;;;;;;17.66;38.23;93453.19;5063077;28;20039;-85
2023/02/26 07:31:17;;;;;;;16.88;4.35;;;;;;;18.71;36.68;93459.28;5056590;28;20028;-87
2023/02/26 07:33:43;;;;;;;22.52;4.57;;;;;;;18.00;37.15;93445.81;5058327;28;20032;-85
2023/02/26 07:36:08;;;;;;;17.73;4.65;;;;;;;17.89;38.38;93458.06;5051411;28;20025;-83
2023/02/26 07:38:34;;;;;;;15.18;4.35;;;;;;;17.49;38.00;93449.91;5095593;28;20027;-85
2023/02/26 07:40:59;;;;;;;23.45;4.50;;;;;;;18.46;37.57;93451.31;5084062;28;20031;-87
2023/02/26 07:43:25;;;;;;;14.00;4.15;;;;;;;18.40;36.83;93453.88;5046867;28;20027;-86
2023/02/26 07:45:51;;;;;;;18.88;4.82;;;;;;;18.91;35.76;93451.50;5067816;28;20012;-85
2023/02/26 07:48:16;;;;;;;20.20;4.93;;;;;;;19.40;34.90;93436.09;5041353;28;20402;-86
2023/02/26 07:50:42;;;;;;;12.60;4.00;;;;;;;20.42;34.04;93429.66;5042491;28;20094;-81
2023/02/26 07:53:08;;;;;;;20.35;4.03;;;;;;;20.14;33.54;93444.16;5061608;28;20575;-84
2023/02/26 07:55:33;;;;;;;13.43;3.88;;;;;;;19.52;34.92;93438.47;5045373;28;20032;-82
2023/02/26 07:57:59;;;;;;;20.42;4.72;;;;;;;19.39;34.50;93434.50;5065222;28;20036;-83
2023/02/26 08:00:24;;;;;;;17.33;4.25;;;;;;;20.26;33.28;93449.16;5063715;28;20052;-81
2023/02/26 08:02:50;;;;;;;11.40;3.95;;;;;;;21.45;31.96;93432.25;5045264;28;20111;-83
2023/02/26 08:05:15;;;;;;;23.23;4.88;;;;;;;20.65;32.65;93425.59;5027867;28;20040;-84
2023/02/26 08:07:41;;;;;;;15.38;4.47;;;;;;;19.96;33.34;93437.66;5042682;28;20041;-83
2023/02/26 08:10:08;;;;;;;23.38;4.22;;;;;;;19.72;34.16;93438.44;5051706;28;20032;-82
2023/02/26 08:12:33;;;;;;;13.90;4.18;;;;;;;19.28;34.86;93428.44;5058696;28;20032;-84
2023/02/26 08:14:59;;;;;;;19.00;4.75;;;;;;;18.60;35.07;93431.44;5054501;28;20046;-84
2023/02/26 08:17:24;;;;;;;17.63;4.45;;;;;;;18.93;34.93;93429.19;5021835;28;20140;-82
2023/02/26 08:19:50;;;;;;;14.18;4.13;;;;;;;18.42;36.33;93443.94;5037312;28;20071;-84
2023/02/26 08:22:15;;;;;;;23.67;4.65;;;;;;;18.23;35.47;93445.44;5044996;28;20036;-85
2023/02/26 08:24:41;;;;;;;18.60;4.35;;;;;;;18.23;36.03;93448.06;5054572;28;20036;-85
2023/02/26 08:27:06;;;;;;;16.20;3.92;;;;;;;18.43;35.73;93439.47;5053766;28;20409;-81
2023/02/26 08:29:32;;;;;;;15.80;4.80;;;;;;;17.85;36.38;93456.22;5051576;28;20017;-79
2023/02/26 08:31:57;;;;;;;19.33;4.88;;;;;;;18.34;35.73;93446.25;5065691;28;20031;-82
2023/02/26 08:34:22;;;;;;;21.73;4.60;;;;;;;18.32;35.64;93435.25;5048894;28;20395;-85
2023/02/26 08:36:51;;;;;;;15.32;4.03;;;;;;;18.18;36.20;93434.91;5024668;28;20391;-86
2023/02/26 08:39:16;;;;;;;23.02;4.25;;;;;;;18.62;35.40;93437.25;5050572;28;20039;-85
2023/02/26 08:41:42;;;;;;;20.42;4.57;;;;;;;19.94;33.67;93439.72;5054399;28;20217;-82
2023/02/26 08:44:07;;;;;;;31.48;4.82;;;;;;;19.53;34.59;93434.78;5043301;28;20056;-81
2023/02/26 08:46:33;;;;;;;26.08;4.85;;;;;;;18.84;34.89;93432.56;5050706;28;20052;-80
2023/02/26 08:48:58;;;;;;;14.95;4.25;;;;;;;18.44;35.28;93433.97;5050439;28;20028;-83
2023/02/26 08:51:24;;;;;;;15.38;4.53;;;;;;;19.20;34.97;93442.06;5049095;28;20509;-84
2023/02/26 08:53:50;;;;;;;19.25;4.95;;;;;;;19.11;34.61;93437.59;5036802;28;20025;-80
2023/02/26 08:56:16;;;;;;;16.02;4.22;;;;;;;19.08;34.46;93444.16;5050303;28;20031;-84
2023/02/26 08:58:42;;;;;;;19.77;4.40;;;;;;;19.31;33.83;93448.13;5049100;28;20661;-83
2023/02/26 09:01:08;;;;;;;17.92;4.40;;;;;;;19.25;34.18;93436.06;5046504;28;20608;-82
2023/02/26 09:03:33;;;;;;;20.63;4.13;;;;;;;19.11;34.19;93433.13;5053501;28;20051;-85
2023/02/26 09:05:59;;;;;;;19.75;3.92;;;;;;;19.44;33.80;93437.16;5073220;28;20024;-83
2023/02/26 09:08:24;;;;;;;13.98;4.57;;;;;;;19.50;34.00;93432.69;5053452;28;20039;-80
2023/02/26 09:10:50;;;;;;;27.55;4.40;;;;;;;20.20;33.18;93432.59;5073067;28;20028;-81
2023/02/26 09:13:15;;;;;;;14.38;4.47;;;;;;;19.29;34.20;93424.78;5070436;28;20020;-86
2023/02/26 09:15:41;;;;;;;18.80;4.78;;;;;;;20.81;32.38;93429.75;5050549;28;20032;-80
2023/02/26 09:18:10;;;;;;;20.60;4.60;;;;;;;20.36;33.14;93431.50;5069235;28;20037;-79
2023/02/26 09:20:36;;;;;;;12.70;4.25;;;;;;;21.30;32.06;93430.53;5068211;28;20028;-79
2023/02/26 09:23:02;;;;;;;28.17;4.88;;;;;;;21.81;30.54;93425.66;5053571;28;20120;-79
2023/02/26 09:25:27;;;;;;;12.75;4.05;;;;;;;21.94;30.31;93426.88;5050049;28;20026;-82
2023/02/26 09:27:53;;;;;;;27.35;5.03;;;;;;;21.59;30.02;93416.63;5064995;28;20330;-78
2023/02/26 09:30:18;;;;;;;18.20;4.07;;;;;;;21.81;29.43;93420.38;5046230;28;20029;-80
2023/02/26 09:32:43;;;;;;;26.00;4.30;;;;;;;21.80;28.87;93412.75;5071019;28;20037;-78
2023/02/26 09:35:10;;;;;;;16.75;5.30;;;;;;;22.20;29.01;93411.59;5069932;28;20028;-80
2023/02/26 09:37:36;;;;;;;24.70;3.60;;;;;;;23.36;28.58;93416.19;5069016;28;20047;-79
2023/02/26 09:40:02;;;;;;;19.63;5.18;;;;;;;22.75;27.27;93432.09;5069314;28;20036;-76
2023/02/26 09:42:59;;;;;;;15.52;4.07;;;;;;;22.18;26.63;93406.59;5061193;28;20464;-81
2023/02/26 09:45:30;;;;;;;21.00;4.70;;;;;;;22.04;27.41;93401.22;5024240;28;20153;-79
2023/02/26 09:47:56;;;;;;;21.63;4.47;;;;;;;23.43;26.09;93390.22;5071246;28;20046;-78
2023/02/26 09:50:35;;;;;;;25.42;10.48;;;;;;;22.86;27.46;93403.72;5071656;28;20034;-80
2023/02/26 09:53:16;;;;;;;21.17;6.35;;;;;;;25.24;25.94;93389.72;5072609;28;20111;-79
2023/02/26 09:55:46;;;;;;;22.70;6.05;;;;;;;24.04;26.08;93394.47;5051966;28;20044;-79
2023/02/26 09:58:20;;;;;;;14.73;4.90;;;;;;;23.93;27.04;93398.38;5069968;28;20025;-80
2023/02/26 10:01:08;;;;;;;18.02;4.35;;;;;;;23.07;26.50;93394.44;5047720;28;20041;-77
2023/02/26 10:03:36;;;;;;;26.65;5.55;;;;;;;22.29;26.37;93389.59;5065796;28;20151;-81
2023/02/26 10:06:27;;;;;;;26.73;5.47;;;;;;;23.78;24.97;93385.41;5070976;28;20028;-79
2023/02/26 10:09:25;;;;;;;32.15;5.05;;;;;;;22.32;26.55;93382.94;5048271;28;20044;-80
2023/02/26 10:12:02;;;;;;;27.88;5.03;;;;;;;23.58;27.14;93387.31;5066843;28;20516;-82
2023/02/26 10:15:17;;;;;;;27.38;5.53;;;;;;;22.59;27.00;93404.28;5057141;28;20492;-80
2023/02/26 10:17:52;;;;;;;23.55;5.78;;;;;;;21.78;26.99;93401.69;4996531;28;20038;-84
2023/02/26 10:20:26;;;;;;;30.80;6.88;;;;;;;20.39;28.67;93388.09;4990242;28;20061;-78
2023/02/26 10:22:52;;;;;;;28.58;5.07;;;;;;;20.66;28.30;93385.09;5027663;28;20199;-79
2023/02/26 10:25:24;;;;;;;25.83;5.72;;;;;;;20.08;28.24;93383.97;5064116;28;20025;-80
2023/02/26 10:28:09;;;;;;;23.08;5.78;;;;;;;20.34;28.78;93391.56;5056401;28;20049;-79
2023/02/26 10:31:04;;;;;;;29.48;5.60;;;;;;;20.32;28.72;93380.53;5073437;28;20044;-79
2023/02/26 10:33:46;;;;;;;27.40;5.95;;;;;;;20.65;28.09;93399.28;4977918;28;20519;-79
2023/02/26 10:36:14;;;;;;;25.08;4.93;;;;;;;20.69;28.40;93395.06;5056450;28;20116;-81
2023/02/26 10:38:41;;;;;;;21.90;4.63;;;;;;;20.68;27.79;93373.22;5071763;28;20525;-79
2023/02/26 10:41:14;;;;;;;24.90;4.78;;;;;;;20.66;27.92;93385.09;5056630;28;20032;-78
2023/02/26 10:43:42;;;;;;;31.58;5.20;;;;;;;21.10;27.90;93385.09;5070238;28;20039;-79
2023/02/26 10:46:19;;;;;;;26.40;5.45;;;;;;;21.78;27.75;93377.97;5069314;28;20389;-79
2023/02/26 10:48:53;;;;;;;24.10;4.50;;;;;;;21.59;28.23;93366.53;5075078;28;20028;-79
2023/02/26 10:51:22;;;;;;;17.20;5.47;;;;;;;20.67;28.60;93374.31;5069733;28;20039;-81
2023/02/26 10:53:53;;;;;;;23.45;5.32;;;;;;;20.61;29.24;93367.50;5054721;28;20477;-83
2023/02/26 10:56:23;;;;;;;28.63;4.85;;;;;;;20.83;28.31;93354.72;5074540;28;20116;-80
2023/02/26 10:58:50;;;;;;;23.70;4.40;;;;;;;20.50;28.83;93350.19;5051306;28;20584;-81
2023/02/26 11:01:18;;;;;;;19.30;4.50;;;;;;;20.50;29.67;93350.19;5067827;28;20024;-80
2023/02/26 11:03:46;;;;;;;25.80;4.60;;;;;;;20.39;30.40;93349.44;5047716;28;20049;-80
2023/02/26 11:06:22;;;;;;;19.95;4.90;;;;;;;20.21;30.74;93350.03;5041553;28;20063;-80
2023/02/26 11:08:51;;;;;;;20.25;4.78;;;;;;;20.06;31.04;93355.34;5060657;28;20036;-82
2023/02/26 11:11:35;;;;;;;28.38;5.60;;;;;;;20.18;30.56;93334.78;5055391;28;20033;-79
2023/02/26 11:14:01;;;;;;;20.60;4.80;;;;;;;19.94;32.34;93326.72;5059103;28;20103;-82
2023/02/26 11:16:27;;;;;;;22.15;4.65;;;;;;;20.09;32.00;93360.06;5048915;28;20028;-87
2023/02/26 11:18:54;;;;;;;28.58;6.72;;;;;;;19.52;31.67;93364.94;5050593;28;20024;-79
2023/02/26 11:21:26;;;;;;;21.00;4.75;;;;;;;19.60;31.77;93354.66;5052555;28;20670;-78
2023/02/26 11:23:57;;;;;;;36.05;11.88;;;;;;;19.65;32.21;93349.38;5052437;28;20029;-79
2023/02/26 11:26:25;;;;;;;30.95;12.82;;;;;;;19.65;32.81;93352.00;5049504;28;20132;-77
2023/02/26 11:28:53;;;;;;;29.25;5.53;;;;;;;19.52;32.36;93349.16;5051066;28;20528;-77
2023/02/26 11:31:22;;;;;;;22.35;8.98;;;;;;;19.62;32.16;93341.28;5053592;28;20037;-79
2023/02/26 11:33:56;;;;;;;71.78;42.28;;;;;;;19.61;32.17;93344.94;5045050;28;20490;-81
2023/02/26 11:36:24;;;;;;;50.42;21.65;;;;;;;19.43;32.36;93338.38;5048413;28;20033;-81
2023/02/26 11:38:55;;;;;;;19.02;5.00;;;;;;;19.54;32.45;93334.72;5028120;28;20028;-76
2023/02/26 11:41:22;;;;;;;22.80;5.05;;;;;;;19.49;31.94;93339.19;5036418;28;20033;-80
2023/02/26 11:43:59;;;;;;;25.92;4.80;;;;;;;19.31;31.37;93325.53;5044899;28;20493;-80
2023/02/26 11:46:25;;;;;;;33.65;5.22;;;;;;;19.29;31.88;93346.00;5046156;28;20031;-80
2023/02/26 11:48:52;;;;;;;23.10;4.50;;;;;;;19.25;32.36;93347.59;5049496;28;20409;-80
2023/02/26 11:51:19;;;;;;;20.20;4.88;;;;;;;19.12;32.43;93348.09;5043447;28;20054;-77
2023/02/26 11:53:51;;;;;;;17.48;4.68;;;;;;;19.13;32.85;93351.53;5043942;28;20024;-84
2023/02/26 11:56:23;;;;;;;23.58;5.32;;;;;;;18.94;33.19;93353.88;5043075;28;20029;-82
2023/02/26 11:58:51;;;;;;;20.65;4.53;;;;;;;18.82;32.97;93345.44;5050790;28;20036;-81
2023/02/26 12:01:16;;;;;;;13.10;4.47;;;;;;;18.84;33.18;93369.59;5046807;28;20024;-83
2023/02/26 12:03:48;;;;;;;15.38;4.88;;;;;;;18.83;33.50;93357.53;5055468;28;20548;-75
2023/02/26 12:06:20;;;;;;;29.83;4.30;;;;;;;18.90;33.73;93363.31;5069946;28;20031;-76
2023/02/26 12:08:45;;;;;;;20.50;5.20;;;;;;;18.85;33.52;93374.59;5044257;28;20358;-74
2023/02/26 12:12:01;;;;;;;12.98;4.45;;;;;;;19.01;33.60;93364.88;5072068;28;20038;-77
2023/02/26 12:14:38;;;;;;;14.90;3.95;;;;;;;19.18;33.50;93362.00;4999789;28;20091;-76